createdAt,value
2023-04-07T00:04:57.626Z,34.55
2023-04-07T00:10:00.766Z,34.10
2023-04-07T00:15:03.772Z,34.25
2023-04-07T00:20:09.438Z,34.17
2023-04-07T00:25:12.475Z,34.10
2023-04-07T00:30:16.414Z,34.42
2023-04-07T00:35:20.998Z,34.80
2023-04-07T00:40:23.961Z,35.35
2023-04-07T00:45:26.982Z,35.45
2023-04-07T00:50:32.395Z,34.78
2023-04-07T00:55:35.362Z,34.60
2023-04-07T01:00:52.495Z,34.42
2023-04-07T01:06:01.329Z,34.63
2023-04-07T01:11:11.608Z,35.08
2023-04-07T01:16:20.517Z,34.78
2023-04-07T01:21:30.494Z,34.22
2023-04-07T01:26:34.714Z,34.35
2023-04-07T01:31:41.831Z,34.47
2023-04-07T01:36:46.679Z,34.53
2023-04-07T01:41:51.503Z,34.10
2023-04-07T01:46:57.660Z,34.22
2023-04-07T01:52:01.361Z,34.28
2023-04-07T01:57:04.541Z,33.53
2023-04-07T02:02:09.407Z,34.53
2023-04-07T02:07:18.716Z,34.25
2023-04-07T02:12:27.419Z,34.78
2023-04-07T02:17:49.828Z,34.85
2023-04-07T02:22:53.773Z,33.97
2023-04-07T02:27:58.829Z,35.00
2023-04-07T02:33:03.269Z,33.85
2023-04-07T02:38:06.240Z,34.20
2023-04-07T02:43:11.888Z,34.47
2023-04-07T02:48:16.324Z,35.30
2023-04-07T02:53:19.496Z,34.42
2023-04-07T02:58:22.634Z,34.40
2023-04-07T03:03:27.339Z,37.83
2023-04-07T03:08:42.201Z,34.92
2023-04-07T03:13:45.239Z,34.33
2023-04-07T03:18:49.845Z,34.58
2023-04-07T03:23:53.281Z,34.45
2023-04-07T03:28:56.714Z,34.53
2023-04-07T03:34:01.232Z,34.05
2023-04-07T03:39:05.142Z,34.22
2023-04-07T03:44:08.094Z,34.28
2023-04-07T03:49:23.107Z,34.28
2023-04-07T03:54:27.358Z,33.88
2023-04-07T03:59:30.372Z,34.95
2023-04-07T04:04:39.493Z,34.17
2023-04-07T04:09:43.987Z,34.22
2023-04-07T04:14:48.225Z,34.42
2023-04-07T04:19:55.217Z,34.35
2023-04-07T04:25:04.210Z,34.60
2023-04-07T04:30:09.466Z,34.13
2023-04-07T04:35:23.225Z,38.13
2023-04-07T04:40:46.455Z,35.60
2023-04-07T04:45:52.810Z,35.72
2023-04-07T04:51:00.879Z,39.53
2023-04-07T04:56:03.825Z,37.17
2023-04-07T05:01:16.651Z,34.45
2023-04-07T05:06:29.025Z,35.50
2023-04-07T05:11:35.570Z,34.78
2023-04-07T05:16:38.632Z,36.28
2023-04-07T05:21:44.190Z,35.85
2023-04-07T05:26:47.888Z,34.88
2023-04-07T05:31:50.947Z,35.60
2023-04-07T05:36:57.591Z,34.85
2023-04-07T05:42:02.149Z,35.15
2023-04-07T05:47:08.800Z,34.97
2023-04-07T05:52:14.567Z,35.15
2023-04-07T05:57:20.492Z,35.65
2023-04-07T06:02:25.447Z,36.05
2023-04-07T06:07:30.686Z,36.58
2023-04-07T06:12:34.810Z,35.90
2023-04-07T06:17:37.828Z,35.50
2023-04-07T06:22:42.062Z,35.03
2023-04-07T06:27:44.935Z,35.85
2023-04-07T06:32:47.904Z,35.00
2023-04-07T06:37:52.162Z,35.78
2023-04-07T06:43:01.789Z,35.78
2023-04-07T06:48:13.591Z,35.45
2023-04-07T06:53:19.198Z,34.97
2023-04-07T06:58:22.082Z,35.08
2023-04-07T07:03:27.534Z,35.67
2023-04-07T07:08:32.229Z,35.13
2023-04-07T07:13:35.453Z,36.13
2023-04-07T07:18:38.358Z,37.38
2023-04-07T07:23:42.504Z,35.25
2023-04-07T07:28:45.506Z,36.72
2023-04-07T07:33:50.014Z,35.72
2023-04-07T07:38:54.477Z,37.42
2023-04-07T07:43:57.423Z,40.00
2023-04-07T07:49:00.412Z,36.30
2023-04-07T07:54:04.970Z,36.85
2023-04-07T07:59:07.854Z,36.47
2023-04-07T08:04:11.070Z,36.05
2023-04-07T08:09:15.525Z,35.97
2023-04-07T08:14:18.458Z,36.55
2023-04-07T08:19:21.361Z,36.38
2023-04-07T08:24:25.614Z,35.75
2023-04-07T08:29:29.984Z,36.38
2023-04-07T08:34:33.417Z,39.95
2023-04-07T08:39:37.611Z,36.40
2023-04-07T08:44:41.010Z,37.00
2023-04-07T08:49:48.141Z,36.38
2023-04-07T08:54:53.246Z,36.33
2023-04-07T08:59:56.393Z,36.83
2023-04-07T09:05:09.062Z,36.33
2023-04-07T09:10:13.380Z,36.70
2023-04-07T09:15:16.596Z,37.22
2023-04-07T09:20:19.503Z,38.58
2023-04-07T09:25:27.249Z,38.08
2023-04-07T09:30:38.073Z,37.22
2023-04-07T09:35:56.252Z,37.20
2023-04-07T09:41:07.818Z,36.95
2023-04-07T09:46:12.879Z,36.47
2023-04-07T09:51:17.800Z,37.55
2023-04-07T09:56:31.370Z,36.28
2023-04-07T10:01:34.325Z,36.50
2023-04-07T10:06:37.399Z,37.58
2023-04-07T10:11:42.686Z,37.65
2023-04-07T10:17:02.182Z,36.35
2023-04-07T10:22:07.271Z,37.10
2023-04-07T10:27:32.042Z,37.65
2023-04-07T10:32:48.060Z,37.20
2023-04-07T10:38:15.232Z,36.92
2023-04-07T10:43:41.946Z,37.05
2023-04-07T10:49:10.724Z,38.38
2023-04-07T10:54:17.896Z,37.53
2023-04-07T10:59:31.210Z,37.05
2023-04-07T11:04:38.174Z,38.55
2023-04-07T11:09:42.222Z,37.50
2023-04-07T11:14:46.460Z,37.50
2023-04-07T11:19:52.780Z,38.10
2023-04-07T11:24:55.990Z,36.50
2023-04-07T11:30:02.551Z,39.95
2023-04-07T11:35:08.319Z,37.40
2023-04-07T11:40:12.884Z,36.40
2023-04-07T11:45:20.884Z,36.60
2023-04-07T11:50:43.733Z,36.95
2023-04-07T11:55:46.884Z,36.50
2023-04-07T12:01:04.936Z,36.22
2023-04-07T12:06:08.901Z,36.33
2023-04-07T12:11:12.199Z,36.53
2023-04-07T12:16:16.537Z,36.03
2023-04-07T12:21:19.566Z,36.45
2023-04-07T12:26:23.454Z,37.25
2023-04-07T12:31:28.042Z,36.05
2023-04-07T12:36:31.022Z,36.35
2023-04-07T12:41:40.154Z,36.47
2023-04-07T12:46:44.689Z,36.58
2023-04-07T12:51:47.604Z,35.80
2023-04-07T12:56:51.690Z,35.78
2023-04-07T13:01:56.040Z,35.53
2023-04-07T13:06:59.682Z,36.47
2023-04-07T13:12:02.925Z,35.85
2023-04-07T13:17:08.356Z,35.72
2023-04-07T13:22:11.437Z,35.85
2023-04-07T13:27:14.298Z,35.30
2023-04-07T13:32:24.570Z,36.25
2023-04-07T13:37:27.484Z,36.17
2023-04-07T13:42:30.342Z,36.55
2023-04-07T13:47:35.386Z,35.95
2023-04-07T13:52:40.400Z,35.50
2023-04-07T13:57:43.345Z,36.20
2023-04-07T14:02:48.474Z,35.33
2023-04-07T14:07:51.774Z,36.75
2023-04-07T14:12:54.624Z,35.85
2023-04-07T14:17:59.822Z,35.95
2023-04-07T14:23:02.722Z,34.95
2023-04-07T14:28:05.633Z,35.75
2023-04-07T14:33:09.966Z,35.38
2023-04-07T14:38:12.839Z,35.88
2023-04-07T14:43:15.764Z,35.90
2023-04-07T14:48:20.116Z,35.83
2023-04-07T14:53:23.467Z,35.70
2023-04-07T14:58:26.292Z,36.90
2023-04-07T15:03:30.840Z,36.55
2023-04-07T15:08:34.225Z,36.97
2023-04-07T15:13:37.389Z,36.15
2023-04-07T15:18:44.346Z,36.08
2023-04-07T15:23:47.525Z,35.63
2023-04-07T15:28:50.730Z,35.63
2023-04-07T15:33:54.950Z,34.83
2023-04-07T15:38:57.846Z,35.38
2023-04-07T15:44:01.204Z,35.28
2023-04-07T15:49:05.378Z,36.08
2023-04-07T15:54:08.441Z,35.72
2023-04-07T15:59:11.345Z,35.30
2023-04-07T16:04:15.600Z,35.42
2023-04-07T16:09:18.615Z,34.88
2023-04-07T16:14:21.521Z,35.10
2023-04-07T16:19:26.073Z,34.70
2023-04-07T16:24:28.931Z,34.80
2023-04-07T16:29:31.830Z,34.65
2023-04-07T16:34:36.065Z,34.88
2023-04-07T16:39:39.033Z,34.65
2023-04-07T16:44:41.914Z,34.67
2023-04-07T16:49:46.160Z,35.08
2023-04-07T16:54:49.208Z,34.83
2023-04-07T16:59:52.067Z,35.00
2023-04-07T17:04:56.392Z,35.33
2023-04-07T17:09:59.309Z,37.55
2023-04-07T17:15:02.225Z,38.35
2023-04-07T17:20:07.756Z,35.75
2023-04-07T17:25:11.489Z,35.10
2023-04-07T17:30:14.790Z,35.00
2023-04-07T17:35:20.314Z,34.47
2023-04-07T17:40:23.536Z,34.28
2023-04-07T17:45:26.597Z,34.85
2023-04-07T17:50:30.854Z,35.03
2023-04-07T17:55:34.122Z,35.05
2023-04-07T18:00:37.073Z,35.28
2023-04-07T18:05:45.620Z,35.22
2023-04-07T18:10:48.512Z,34.83
2023-04-07T18:15:52.003Z,34.72
2023-04-07T18:20:56.397Z,34.65
2023-04-07T18:25:59.471Z,34.55
2023-04-07T18:31:03.627Z,34.78
2023-04-07T18:36:09.087Z,35.15
2023-04-07T18:41:14.074Z,34.42
2023-04-07T18:46:17.152Z,34.28
2023-04-07T18:51:21.863Z,34.47
2023-04-07T18:56:27.270Z,34.90
2023-04-07T19:01:30.472Z,35.22
2023-04-07T19:06:45.999Z,34.85
2023-04-07T19:11:48.921Z,34.70
2023-04-07T19:16:53.102Z,34.42
2023-04-07T19:21:57.394Z,34.60
2023-04-07T19:27:00.236Z,34.90
2023-04-07T19:32:03.351Z,34.63
2023-04-07T19:37:08.702Z,34.58
2023-04-07T19:42:11.809Z,35.10
2023-04-07T19:47:14.806Z,35.72
2023-04-07T19:52:19.245Z,35.97
2023-04-07T19:57:22.607Z,36.13
2023-04-07T20:02:25.838Z,35.25
2023-04-07T20:07:30.866Z,34.65
2023-04-07T20:12:33.759Z,35.53
2023-04-07T20:18:02.740Z,36.53
2023-04-07T20:23:07.021Z,34.60
2023-04-07T20:28:09.855Z,34.63
2023-04-07T20:33:12.717Z,35.08
2023-04-07T20:38:18.678Z,35.25
2023-04-07T20:43:23.611Z,34.90
2023-04-07T20:48:26.755Z,35.67
2023-04-07T20:53:31.233Z,34.85
2023-04-07T20:58:34.155Z,35.28
2023-04-07T21:03:37.207Z,35.67
2023-04-07T21:08:41.512Z,34.88
2023-04-07T21:13:44.398Z,35.20
2023-04-07T21:18:47.468Z,36.20
2023-04-07T21:23:51.958Z,36.72
2023-04-07T21:28:55.245Z,35.63
2023-04-07T21:33:58.128Z,35.70
2023-04-07T21:39:02.384Z,35.65
2023-04-07T21:44:07.257Z,35.50
2023-04-07T21:49:10.210Z,35.10
2023-04-07T21:54:14.560Z,36.10
2023-04-07T21:59:17.878Z,36.05
2023-04-07T22:04:21.725Z,35.92
2023-04-07T22:09:26.071Z,36.55
2023-04-07T22:14:28.950Z,35.30
2023-04-07T22:19:31.828Z,37.60
2023-04-07T22:24:36.350Z,36.53
2023-04-07T22:29:39.282Z,35.85
2023-04-07T22:34:42.141Z,35.78
2023-04-07T22:39:46.929Z,36.08
2023-04-07T22:44:49.778Z,36.45
2023-04-07T22:49:52.651Z,35.95
2023-04-07T22:54:57.808Z,36.30
2023-04-07T23:00:01.022Z,35.85
2023-04-07T23:05:03.944Z,35.08
2023-04-07T23:10:09.848Z,37.05
2023-04-07T23:15:13.129Z,36.83
2023-04-07T23:20:16.194Z,35.65
2023-04-07T23:25:21.162Z,37.08
2023-04-07T23:30:24.002Z,37.13
2023-04-07T23:35:26.894Z,35.75
2023-04-07T23:40:31.331Z,36.10
2023-04-07T23:45:34.215Z,36.30
2023-04-07T23:50:37.624Z,36.95
2023-04-07T23:55:41.811Z,36.50
